Time;durP1;ratioP1;P1;durP2;ratioP2;P2;SDS_P1;SDS_P2;PMS_P1;PMS_P2;Temp;Humidity;BMP_temperature;BMP_pressure;BME280_temperature;BME280_humidity;BME280_pressure;Samples;Min_cycle;Max_cycle;Signal;HPM_P1;HPM_P2
2022/11/26 00:01:21;;;;;;;19.03;7.70;;;6.30;99.90;;;;;;5035354;28;20285;-54
2022/11/26 00:03:48;;;;;;;17.23;6.80;;;6.40;99.90;;;;;;5037967;28;20214;-55
2022/11/26 00:06:32;;;;;;;16.50;8.10;;;6.50;99.90;;;;;;5034557;28;20206;-55
2022/11/26 00:08:59;;;;;;;17.50;7.43;;;6.40;99.90;;;;;;5038295;28;20188;-55
2022/11/26 00:11:27;;;;;;;14.27;7.20;;;6.30;99.90;;;;;;5036871;28;20283;-56
2022/11/26 00:13:53;;;;;;;16.67;8.03;;;6.40;99.90;;;;;;5036784;28;20203;-54
2022/11/26 00:16:20;;;;;;;18.77;7.53;;;6.40;99.90;;;;;;5034570;28;20564;-54
2022/11/26 00:18:47;;;;;;;13.17;7.33;;;6.40;99.90;;;;;;5032720;28;20211;-55
2022/11/26 00:21:20;;;;;;;18.00;7.50;;;6.40;99.90;;;;;;5032048;28;20274;-55
2022/11/26 00:23:47;;;;;;;15.60;7.27;;;6.30;99.90;;;;;;5031510;28;20676;-55
2022/11/26 00:26:17;;;;;;;15.47;6.83;;;6.40;99.90;;;;;;5037487;28;20211;-54
2022/11/26 00:29:10;;;;;;;15.30;6.77;;;6.40;99.90;;;;;;5034183;28;20232;-55
2022/11/26 00:31:37;;;;;;;16.47;6.43;;;6.40;99.90;;;;;;5033049;28;20216;-55
2022/11/26 00:34:03;;;;;;;15.17;7.40;;;6.30;99.90;;;;;;5035234;28;20579;-55
2022/11/26 00:36:31;;;;;;;21.73;8.27;;;6.30;99.90;;;;;;5035329;28;20205;-55
2022/11/26 00:39:10;;;;;;;24.80;9.70;;;6.30;99.90;;;;;;5036630;28;20555;-55
2022/11/26 00:41:37;;;;;;;18.47;8.50;;;6.30;99.90;;;;;;5036367;28;20207;-55
2022/11/26 00:44:16;;;;;;;20.87;9.33;;;6.20;99.90;;;;;;5035659;28;20227;-55
2022/11/26 00:46:43;;;;;;;20.53;9.00;;;6.30;99.90;;;;;;5036679;28;20910;-55
2022/11/26 00:49:09;;;;;;;20.97;9.83;;;6.30;99.90;;;;;;5034190;28;20320;-55
2022/11/26 00:51:36;;;;;;;16.23;7.93;;;6.30;99.90;;;;;;5037665;28;20240;-55
2022/11/26 00:54:04;;;;;;;13.97;7.63;;;6.30;99.90;;;;;;5039020;28;20238;-55
2022/11/26 00:56:32;;;;;;;16.90;8.60;;;6.20;99.90;;;;;;5039477;28;20203;-56
2022/11/26 00:59:04;;;;;;;14.23;6.90;;;6.20;99.90;;;;;;5037912;28;20208;-54
2022/11/26 01:01:31;;;;;;;18.53;7.90;;;6.10;99.90;;;;;;5037924;28;20210;-55
2022/11/26 01:03:59;;;;;;;13.97;7.43;;;6.10;99.90;;;;;;5037472;28;20219;-54
2022/11/26 01:06:31;;;;;;;16.23;7.90;;;6.10;99.90;;;;;;5037622;28;20197;-54
2022/11/26 01:08:58;;;;;;;17.73;7.23;;;6.10;99.90;;;;;;5038230;28;20198;-55
2022/11/26 01:11:26;;;;;;;15.97;7.80;;;6.10;99.90;;;;;;5037151;28;20218;-55
2022/11/26 01:13:54;;;;;;;15.00;7.47;;;6.10;99.90;;;;;;5039466;28;20601;-55
2022/11/26 01:16:30;;;;;;;16.20;7.63;;;6.10;99.90;;;;;;5037407;28;20343;-55
2022/11/26 01:18:58;;;;;;;18.73;7.33;;;6.00;99.90;;;;;;5038494;28;20719;-55
2022/11/26 01:21:28;;;;;;;17.50;7.90;;;6.10;99.90;;;;;;5035226;28;20280;-55
2022/11/26 01:23:55;;;;;;;16.90;7.30;;;6.10;99.90;;;;;;5034597;28;20208;-55
2022/11/26 01:26:26;;;;;;;16.00;8.03;;;6.00;99.90;;;;;;5013851;28;20240;-55
2022/11/26 01:28:54;;;;;;;16.80;7.83;;;5.90;99.90;;;;;;5032866;28;20193;-55
2022/11/26 01:31:26;;;;;;;18.70;8.57;;;6.00;99.90;;;;;;5038262;28;20647;-55
2022/11/26 01:33:53;;;;;;;14.27;7.83;;;6.00;99.90;;;;;;5036873;28;20497;-55
2022/11/26 01:36:30;;;;;;;22.43;9.10;;;6.00;99.90;;;;;;5036995;28;20299;-55
2022/11/26 01:39:18;;;;;;;18.37;8.73;;;6.00;99.90;;;;;;5037599;28;20200;-55
2022/11/26 01:42:06;;;;;;;22.67;10.17;;;6.00;99.90;;;;;;5038487;28;20215;-55
2022/11/26 01:44:35;;;;;;;17.27;9.90;;;6.00;99.90;;;;;;5041555;28;20259;-55
2022/11/26 01:47:20;;;;;;;20.37;10.97;;;5.90;99.90;;;;;;5039262;28;20203;-56
2022/11/26 01:50:24;;;;;;;18.67;10.93;;;5.90;99.90;;;;;;5037833;28;20226;-55
2022/11/26 01:52:51;;;;;;;20.07;13.03;;;5.90;99.90;;;;;;5038810;28;20671;-55
2022/11/26 01:55:18;;;;;;;28.53;17.97;;;5.90;99.90;;;;;;5039875;28;20656;-55
2022/11/26 01:57:46;;;;;;;29.17;23.20;;;5.90;99.90;;;;;;5039687;28;20211;-54
2022/11/26 02:00:13;;;;;;;31.73;23.97;;;5.90;99.90;;;;;;5037509;28;20634;-55
2022/11/26 02:02:41;;;;;;;40.87;24.97;;;5.90;99.90;;;;;;5040030;28;20589;-55
2022/11/26 02:05:18;;;;;;;33.53;20.43;;;5.80;99.90;;;;;;5035863;28;20757;-55
2022/11/26 02:07:46;;;;;;;16.03;12.20;;;5.70;99.90;;;;;;5037172;28;20275;-55
2022/11/26 02:10:13;;;;;;;16.43;10.23;;;5.50;99.90;;;;;;5031705;28;20226;-55
2022/11/26 02:12:41;;;;;;;19.03;9.70;;;5.50;99.90;;;;;;5038260;28;20210;-55
2022/11/26 02:15:11;;;;;;;25.10;10.30;;;5.50;99.90;;;;;;5029706;28;20327;-56
2022/11/26 02:17:42;;;;;;;20.17;9.17;;;5.50;99.90;;;;;;5057851;28;20301;-55
2022/11/26 02:20:21;;;;;;;16.90;8.83;;;5.50;99.90;;;;;;5057997;28;20661;-55
2022/11/26 02:22:48;;;;;;;16.77;8.67;;;5.50;99.90;;;;;;5060343;28;20247;-55
2022/11/26 02:25:27;;;;;;;19.03;8.97;;;5.70;99.90;;;;;;5060558;28;20234;-55
2022/11/26 02:28:22;;;;;;;19.20;9.03;;;5.70;99.90;;;;;;5055984;28;20239;-55
2022/11/26 02:30:56;;;;;;;14.97;8.00;;;5.60;99.90;;;;;;5048651;28;20290;-55
2022/11/26 02:33:48;;;;;;;15.47;8.07;;;5.60;99.90;;;;;;5052738;28;20195;-55
2022/11/26 02:36:25;;;;;;;15.53;8.00;;;5.70;99.90;;;;;;5055214;28;21189;-55
2022/11/26 02:38:52;;;;;;;15.97;8.70;;;5.60;99.90;;;;;;5056908;28;20292;-56
2022/11/26 02:41:19;;;;;;;18.80;8.53;;;5.60;99.90;;;;;;5055755;28;20207;-55
2022/11/26 02:43:46;;;;;;;18.67;8.00;;;5.60;99.90;;;;;;5055691;28;20219;-55
2022/11/26 02:46:18;;;;;;;17.17;9.47;;;5.60;99.90;;;;;;5055249;28;20268;-55
2022/11/26 02:48:48;;;;;;;18.23;8.70;;;5.50;99.90;;;;;;5054293;28;20204;-54
2022/11/26 02:51:24;;;;;;;18.27;9.10;;;5.50;99.90;;;;;;5038003;28;20235;-59
2022/11/26 02:53:56;;;;;;;18.83;8.77;;;5.50;99.90;;;;;;5058980;28;20207;-56
2022/11/26 02:56:26;;;;;;;16.43;9.00;;;5.50;99.90;;;;;;5054459;28;20307;-55
2022/11/26 02:58:55;;;;;;;19.23;8.53;;;5.40;99.90;;;;;;5052183;28;20745;-55
2022/11/26 03:01:31;;;;;;;14.83;8.80;;;5.40;99.90;;;;;;5054110;28;20194;-56
2022/11/26 03:04:04;;;;;;;22.40;9.67;;;5.40;99.90;;;;;;5055563;28;20222;-54
2022/11/26 03:06:33;;;;;;;17.23;10.00;;;5.40;99.90;;;;;;5054680;28;20290;-55
2022/11/26 03:09:00;;;;;;;18.43;9.17;;;5.40;99.90;;;;;;5054360;28;20289;-55
2022/11/26 03:11:27;;;;;;;18.27;9.27;;;5.40;99.90;;;;;;5055230;28;20283;-55
2022/11/26 03:13:54;;;;;;;18.43;8.97;;;5.30;99.90;;;;;;5057307;28;20209;-54
2022/11/26 03:16:21;;;;;;;19.87;8.80;;;5.30;99.90;;;;;;5038832;28;22269;-55
2022/11/26 03:18:48;;;;;;;18.37;9.13;;;5.30;99.90;;;;;;5036520;28;20612;-55
2022/11/26 03:21:15;;;;;;;21.63;9.47;;;5.30;99.90;;;;;;5025565;28;20201;-55
2022/11/26 03:23:42;;;;;;;22.53;8.83;;;5.30;99.90;;;;;;5036021;28;20666;-54
2022/11/26 03:26:09;;;;;;;17.80;9.70;;;5.30;99.90;;;;;;5034990;28;20207;-56
2022/11/26 03:28:35;;;;;;;18.50;8.90;;;5.40;99.90;;;;;;5035297;28;20202;-55
2022/11/26 03:31:02;;;;;;;15.13;8.80;;;5.40;99.90;;;;;;5032000;28;20265;-55
2022/11/26 03:33:29;;;;;;;20.60;9.97;;;5.40;99.90;;;;;;5030711;28;20196;-54
2022/11/26 03:35:56;;;;;;;15.30;8.30;;;5.30;99.90;;;;;;5029734;28;20203;-55
2022/11/26 03:38:22;;;;;;;21.00;9.07;;;5.30;99.90;;;;;;5036107;28;20196;-55
2022/11/26 03:41:01;;;;;;;18.93;9.63;;;5.30;99.90;;;;;;5036668;28;20192;-56
2022/11/26 03:43:28;;;;;;;16.87;9.00;;;5.40;99.90;;;;;;5036795;28;20293;-55
2022/11/26 03:45:55;;;;;;;18.93;9.17;;;5.50;99.90;;;;;;5035436;28;20267;-54
2022/11/26 03:48:22;;;;;;;20.10;9.57;;;5.40;99.90;;;;;;5034802;28;20624;-58
2022/11/26 03:50:49;;;;;;;18.47;8.70;;;5.40;99.90;;;;;;5037473;28;20310;-55
2022/11/26 03:53:16;;;;;;;19.20;9.03;;;5.40;99.90;;;;;;5037583;28;20208;-56
2022/11/26 03:55:43;;;;;;;19.07;8.73;;;5.40;99.90;;;;;;5037883;28;20585;-55
2022/11/26 03:58:10;;;;;;;15.33;9.17;;;5.40;99.90;;;;;;5016237;28;20239;-55
2022/11/26 04:00:37;;;;;;;22.13;9.20;;;5.40;99.90;;;;;;5035390;28;20578;-55
2022/11/26 04:03:04;;;;;;;16.03;8.53;;;5.40;99.90;;;;;;5034940;28;20316;-56
2022/11/26 04:05:31;;;;;;;19.13;8.23;;;5.40;99.90;;;;;;5035098;28;21761;-55
2022/11/26 04:07:58;;;;;;;16.17;9.33;;;5.30;99.90;;;;;;5033652;28;20197;-56
2022/11/26 04:10:25;;;;;;;16.73;8.60;;;5.40;99.90;;;;;;5035878;28;20238;-55
2022/11/26 04:12:51;;;;;;;16.77;9.10;;;5.40;99.90;;;;;;5039724;28;20202;-55
2022/11/26 04:15:18;;;;;;;16.53;9.20;;;5.40;99.90;;;;;;5034641;28;20241;-55
2022/11/26 04:17:45;;;;;;;18.27;8.90;;;5.40;99.90;;;;;;5034235;28;20743;-55
2022/11/26 04:20:12;;;;;;;16.63;8.10;;;5.40;99.90;;;;;;5034750;28;20258;-55
2022/11/26 04:22:39;;;;;;;20.60;8.93;;;5.50;99.90;;;;;;5018009;28;20239;-54
2022/11/26 04:25:06;;;;;;;17.83;8.13;;;5.40;99.90;;;;;;5036476;28;20211;-55
2022/11/26 04:27:34;;;;;;;16.67;8.67;;;5.40;99.90;;;;;;5036818;28;20311;-55
2022/11/26 04:30:01;;;;;;;16.27;8.93;;;5.40;99.90;;;;;;5037203;28;20642;-54
2022/11/26 04:32:28;;;;;;;13.40;8.27;;;5.40;99.90;;;;;;5036344;28;20229;-56
2022/11/26 04:34:54;;;;;;;16.73;8.07;;;5.40;99.90;;;;;;5039549;28;20286;-55
2022/11/26 04:37:21;;;;;;;19.07;7.80;;;5.40;99.90;;;;;;5034217;28;20206;-56
2022/11/26 04:39:48;;;;;;;16.07;8.07;;;5.40;99.90;;;;;;5049965;28;20642;-55
2022/11/26 04:42:15;;;;;;;15.67;7.93;;;5.30;99.90;;;;;;5038953;28;20243;-65
2022/11/26 04:44:41;;;;;;;18.17;9.67;;;5.40;99.90;;;;;;5037275;28;20615;-55
2022/11/26 04:47:08;;;;;;;15.57;8.33;;;5.30;99.90;;;;;;5035073;28;20423;-56
2022/11/26 04:49:35;;;;;;;18.67;8.40;;;5.30;99.90;;;;;;5035580;28;20561;-55
2022/11/26 04:52:02;;;;;;;18.73;8.40;;;5.30;99.90;;;;;;5035238;28;20228;-55
2022/11/26 04:54:29;;;;;;;15.07;8.33;;;5.30;99.90;;;;;;5036459;28;20734;-56
2022/11/26 04:56:56;;;;;;;15.77;8.00;;;5.40;99.90;;;;;;5036042;28;20692;-55
2022/11/26 04:59:22;;;;;;;17.80;7.93;;;5.40;99.90;;;;;;5036648;28;20246;-55
2022/11/26 05:01:49;;;;;;;15.30;8.10;;;5.40;99.90;;;;;;5038419;28;20826;-55
2022/11/26 05:04:16;;;;;;;17.60;8.17;;;5.50;99.90;;;;;;5034650;28;20223;-57
2022/11/26 05:06:43;;;;;;;19.40;8.67;;;5.50;99.90;;;;;;5033037;28;20300;-56
2022/11/26 05:09:09;;;;;;;14.23;7.87;;;5.50;99.90;;;;;;5031473;28;20207;-56
2022/11/26 05:11:36;;;;;;;17.80;8.17;;;5.40;99.90;;;;;;5035410;28;20223;-55
2022/11/26 05:14:03;;;;;;;21.10;7.57;;;5.40;99.90;;;;;;5040871;28;20232;-55
2022/11/26 05:16:30;;;;;;;14.17;7.83;;;5.50;99.90;;;;;;5038974;28;20260;-56
2022/11/26 05:18:57;;;;;;;14.43;7.60;;;5.50;99.90;;;;;;5022291;28;20197;-55
2022/11/26 05:21:24;;;;;;;16.20;7.50;;;5.50;99.90;;;;;;5026757;28;20220;-56
2022/11/26 05:23:50;;;;;;;16.47;7.30;;;5.50;99.90;;;;;;5040091;28;20228;-55
2022/11/26 05:26:17;;;;;;;19.10;8.43;;;5.40;99.90;;;;;;5038447;28;20696;-61
2022/11/26 05:28:44;;;;;;;19.20;7.53;;;5.40;99.90;;;;;;5037907;28;20210;-55
2022/11/26 05:31:11;;;;;;;22.33;8.63;;;5.40;99.90;;;;;;5040226;28;20276;-55
2022/11/26 05:33:38;;;;;;;14.10;7.13;;;5.40;99.90;;;;;;5055571;28;20218;-55
2022/11/26 05:36:05;;;;;;;18.40;7.60;;;5.40;99.90;;;;;;5039669;28;20210;-54
2022/11/26 05:38:31;;;;;;;18.33;6.97;;;5.50;99.90;;;;;;5041520;28;20204;-56
2022/11/26 05:40:58;;;;;;;12.00;7.00;;;5.40;99.90;;;;;;5038777;28;20203;-55
2022/11/26 05:43:25;;;;;;;21.87;8.63;;;5.40;99.90;;;;;;5040054;28;20286;-55
2022/11/26 05:45:52;;;;;;;15.60;6.80;;;5.40;99.90;;;;;;5040442;28;20224;-55
2022/11/26 05:48:19;;;;;;;15.17;6.77;;;5.40;99.90;;;;;;5037532;28;20200;-55
2022/11/26 05:50:46;;;;;;;18.60;7.50;;;5.40;99.90;;;;;;5038706;28;20206;-55
2022/11/26 05:53:20;;;;;;;19.63;7.40;;;5.40;99.90;;;;;;5039424;28;20826;-54
2022/11/26 05:55:46;;;;;;;17.10;7.27;;;5.30;99.90;;;;;;5041528;28;20208;-55
2022/11/26 05:58:13;;;;;;;18.97;8.43;;;5.40;99.90;;;;;;5040440;28;20214;-54
2022/11/26 06:00:40;;;;;;;17.67;7.50;;;5.50;99.90;;;;;;5040892;28;20208;-55
2022/11/26 06:03:06;;;;;;;14.50;6.87;;;5.40;99.90;;;;;;5042035;28;20210;-55
2022/11/26 06:05:34;;;;;;;15.40;7.70;;;5.40;99.90;;;;;;5040325;28;20307;-55
2022/11/26 06:08:00;;;;;;;17.83;7.13;;;5.40;99.90;;;;;;5040516;28;20220;-55
2022/11/26 06:10:27;;;;;;;15.10;7.77;;;5.50;99.90;;;;;;5035338;28;20225;-56
2022/11/26 06:12:54;;;;;;;15.63;6.47;;;5.40;99.90;;;;;;5042167;28;20293;-55
2022/11/26 06:15:21;;;;;;;16.10;7.20;;;5.40;99.90;;;;;;5041483;28;20303;-55
2022/11/26 06:17:48;;;;;;;25.20;6.70;;;5.40;99.90;;;;;;5040571;28;20315;-55
2022/11/26 06:20:15;;;;;;;15.30;6.63;;;5.40;99.90;;;;;;5038219;28;20338;-55
2022/11/26 06:22:42;;;;;;;20.53;7.27;;;5.40;99.90;;;;;;5034456;28;20283;-56
2022/11/26 06:25:12;;;;;;;16.53;7.97;;;5.40;99.90;;;;;;5038322;28;20225;-55
2022/11/26 06:27:40;;;;;;;23.43;6.67;;;5.40;99.90;;;;;;5037281;28;20686;-55
2022/11/26 06:30:08;;;;;;;13.53;6.80;;;5.40;99.90;;;;;;5038240;28;20211;-55
2022/11/26 06:32:35;;;;;;;16.80;7.00;;;5.40;99.90;;;;;;5031139;28;20231;-57
2022/11/26 06:35:03;;;;;;;18.70;6.67;;;5.30;99.90;;;;;;5033132;28;20206;-55
2022/11/26 06:37:31;;;;;;;13.03;6.57;;;5.30;99.90;;;;;;5034802;28;20207;-55
2022/11/26 06:39:57;;;;;;;16.40;7.10;;;5.40;99.90;;;;;;5038587;28;20347;-57
2022/11/26 06:42:24;;;;;;;13.40;6.50;;;5.30;99.90;;;;;;5020711;28;20293;-55
2022/11/26 06:44:51;;;;;;;17.97;6.87;;;5.30;99.90;;;;;;5038466;28;20216;-57
2022/11/26 06:47:25;;;;;;;17.93;7.03;;;5.30;99.90;;;;;;5038612;28;20234;-54
2022/11/26 06:49:52;;;;;;;17.10;6.83;;;5.40;99.90;;;;;;5038241;28;20208;-55
2022/11/26 06:52:19;;;;;;;16.87;6.33;;;5.40;99.90;;;;;;5037193;28;21014;-55
2022/11/26 06:54:46;;;;;;;14.87;6.87;;;5.40;99.90;;;;;;5037356;28;20206;-55
2022/11/26 06:57:13;;;;;;;19.73;6.77;;;5.40;99.90;;;;;;5038401;28;20299;-55
2022/11/26 06:59:40;;;;;;;13.77;6.67;;;5.50;99.90;;;;;;5037458;28;20550;-57
2022/11/26 07:02:08;;;;;;;16.93;7.10;;;5.60;99.90;;;;;;5011768;28;20233;-55
2022/11/26 07:04:35;;;;;;;18.67;6.30;;;5.60;99.90;;;;;;5035475;28;20245;-55
2022/11/26 07:07:02;;;;;;;11.87;6.50;;;5.60;99.90;;;;;;5037139;28;20205;-56
2022/11/26 07:09:29;;;;;;;24.17;7.83;;;5.60;99.90;;;;;;5037805;28;20211;-55
2022/11/26 07:11:56;;;;;;;14.23;6.10;;;5.60;99.90;;;;;;5038909;28;20239;-56
2022/11/26 07:14:23;;;;;;;18.43;6.33;;;5.50;99.90;;;;;;5037271;28;20215;-55
2022/11/26 07:16:50;;;;;;;15.03;5.97;;;5.50;99.90;;;;;;5034748;28;20227;-56
2022/11/26 07:19:16;;;;;;;12.97;6.17;;;5.50;99.90;;;;;;5034914;28;20205;-55
2022/11/26 07:21:43;;;;;;;17.60;6.47;;;5.50;99.90;;;;;;5034189;28;20200;-55
2022/11/26 07:24:10;;;;;;;18.63;6.60;;;5.60;99.90;;;;;;5019367;28;20209;-55
2022/11/26 07:26:37;;;;;;;13.97;5.90;;;5.60;99.90;;;;;;5038588;28;20298;-55
2022/11/26 07:29:04;;;;;;;14.93;5.90;;;5.50;99.90;;;;;;5034982;28;20197;-55
2022/11/26 07:31:31;;;;;;;15.20;5.67;;;5.60;99.90;;;;;;5040052;28;20672;-60
2022/11/26 07:33:58;;;;;;;16.70;6.17;;;5.60;99.90;;;;;;5035188;28;20751;-55
2022/11/26 07:36:27;;;;;;;17.30;6.73;;;5.60;99.90;;;;;;5032060;28;20211;-55
2022/11/26 07:38:58;;;;;;;16.47;6.03;;;5.60;99.90;;;;;;5029208;28;20853;-55
2022/11/26 07:41:26;;;;;;;15.63;5.87;;;5.60;99.90;;;;;;5026984;28;20205;-55
2022/11/26 07:43:54;;;;;;;13.63;5.77;;;5.60;99.90;;;;;;5028457;28;20199;-55
2022/11/26 07:46:23;;;;;;;15.53;6.53;;;5.60;99.90;;;;;;5012034;28;20768;-55
2022/11/26 07:48:50;;;;;;;18.70;5.87;;;5.70;99.90;;;;;;5030014;28;20211;-55
2022/11/26 07:51:20;;;;;;;12.27;5.57;;;5.70;99.90;;;;;;4673263;28;10000249;-54
2022/11/26 07:53:48;;;;;;;15.20;5.17;;;5.80;99.90;;;;;;5025707;28;20637;-55
2022/11/26 07:56:16;;;;;;;15.00;5.17;;;5.80;99.90;;;;;;5029015;28;20330;-54
2022/11/26 07:58:43;;;;;;;14.73;6.33;;;5.80;99.90;;;;;;5032540;28;20208;-55
2022/11/26 08:01:12;;;;;;;11.13;5.97;;;5.80;99.90;;;;;;5033091;28;20867;-55
2022/11/26 08:03:42;;;;;;;14.93;5.53;;;5.90;99.90;;;;;;5036858;28;20302;-55
2022/11/26 08:06:11;;;;;;;16.87;5.10;;;5.90;99.90;;;;;;5030875;28;20267;-55
2022/11/26 08:08:39;;;;;;;17.27;7.43;;;6.00;99.90;;;;;;5029299;28;20208;-55
2022/11/26 08:11:18;;;;;;;18.77;5.03;;;6.00;99.90;;;;;;5030904;28;20242;-55
2022/11/26 08:13:46;;;;;;;14.50;4.87;;;6.10;99.90;;;;;;5030874;28;20210;-55
2022/11/26 08:16:13;;;;;;;11.40;4.77;;;6.10;99.90;;;;;;5034722;28;20327;-55
2022/11/26 08:18:41;;;;;;;13.77;5.10;;;6.10;99.90;;;;;;5031281;28;20224;-56
2022/11/26 08:21:08;;;;;;;16.27;5.33;;;6.20;99.90;;;;;;5032227;28;20198;-55
2022/11/26 08:23:36;;;;;;;12.23;5.57;;;6.30;99.90;;;;;;5030998;28;20198;-55
2022/11/26 08:26:07;;;;;;;13.90;5.13;;;6.40;99.90;;;;;;5029348;28;20218;-55
2022/11/26 08:28:54;;;;;;;14.27;4.90;;;6.40;99.90;;;;;;5029060;28;20208;-55
2022/11/26 08:31:23;;;;;;;10.37;4.97;;;6.40;99.90;;;;;;5031649;28;20643;-55
2022/11/26 08:33:50;;;;;;;11.03;5.00;;;6.40;99.90;;;;;;5028910;28;20212;-56
2022/11/26 08:36:17;;;;;;;15.00;4.73;;;6.30;99.90;;;;;;5045577;28;20205;-55
2022/11/26 08:38:44;;;;;;;13.97;5.13;;;6.40;99.90;;;;;;5039254;28;20232;-55
2022/11/26 08:41:12;;;;;;;11.67;5.77;;;6.50;99.90;;;;;;5031199;28;20306;-56
2022/11/26 08:43:40;;;;;;;16.70;5.63;;;6.50;99.90;;;;;;5030083;28;20214;-56
2022/11/26 08:46:26;;;;;;;11.20;4.90;;;6.40;99.90;;;;;;5027236;28;20224;-56
2022/11/26 08:48:55;;;;;;;9.83;4.40;;;6.50;99.90;;;;;;5035528;28;20212;-55
2022/11/26 08:51:23;;;;;;;12.63;4.77;;;6.60;99.90;;;;;;5024967;28;20204;-55
2022/11/26 08:53:50;;;;;;;11.00;4.67;;;6.70;99.90;;;;;;5027610;28;20226;-55
2022/11/26 08:56:17;;;;;;;15.07;5.27;;;6.80;99.90;;;;;;5029603;28;20354;-55
2022/11/26 08:58:44;;;;;;;9.70;4.30;;;6.80;99.90;;;;;;5031170;28;20209;-60
2022/11/26 09:01:19;;;;;;;14.57;5.73;;;6.80;99.90;;;;;;5032817;28;20203;-56
2022/11/26 09:03:48;;;;;;;14.23;5.23;;;6.90;99.90;;;;;;5032632;28;20281;-56
2022/11/26 09:06:16;;;;;;;12.57;5.13;;;6.90;99.90;;;;;;5027783;28;20242;-55
2022/11/26 09:11:29;;;;;;;16.03;5.27;;;7.00;99.90;;;;;;5028621;28;20227;-55
2022/11/26 09:13:57;;;;;;;11.30;5.40;;;7.00;99.90;;;;;;5028285;28;20584;-56
2022/11/26 09:16:24;;;;;;;20.13;5.43;;;7.00;99.90;;;;;;5025020;28;20240;-56
2022/11/26 09:18:52;;;;;;;16.67;5.23;;;7.00;99.90;;;;;;5021847;28;20205;-56
2022/11/26 09:21:20;;;;;;;15.40;5.03;;;6.90;99.90;;;;;;5024239;28;20314;-57
2022/11/26 09:23:47;;;;;;;12.83;4.70;;;7.00;99.90;;;;;;5024755;28;20214;-56
2022/11/26 09:26:13;;;;;;;10.87;4.67;;;7.00;99.90;;;;;;5030561;28;20751;-55
2022/11/26 09:28:40;;;;;;;14.87;5.33;;;7.00;99.90;;;;;;5026969;28;21250;-55
2022/11/26 09:31:07;;;;;;;16.70;5.03;;;7.00;99.90;;;;;;5030235;28;20221;-55
2022/11/26 09:33:34;;;;;;;15.07;4.77;;;7.00;99.90;;;;;;5018966;28;20832;-56
2022/11/26 09:36:06;;;;;;;16.03;4.50;;;7.10;99.90;;;;;;5021672;28;20208;-56
2022/11/26 09:38:33;;;;;;;21.27;5.07;;;7.10;99.90;;;;;;5023343;28;20327;-55
2022/11/26 09:41:17;;;;;;;16.03;5.07;;;7.10;99.90;;;;;;5026321;28;20323;-57
2022/11/26 09:44:12;;;;;;;14.43;5.00;;;7.20;99.90;;;;;;5043414;28;20211;-56
2022/11/26 09:46:57;;;;;;;12.27;5.07;;;7.30;99.90;;;;;;5036382;28;20270;-55
2022/11/26 09:49:59;;;;;;;18.37;4.63;;;7.20;99.90;;;;;;5027207;28;20201;-56
2022/11/26 09:52:40;;;;;;;16.50;4.07;;;7.30;99.90;;;;;;5041037;28;20205;-57
2022/11/26 09:55:32;;;;;;;14.40;4.00;;;7.30;99.90;;;;;;5035975;28;20574;-55
2022/11/26 09:58:05;;;;;;;13.83;4.87;;;7.30;99.90;;;;;;5038917;28;20211;-55
2022/11/26 10:00:37;;;;;;;13.80;4.73;;;7.40;99.90;;;;;;5040443;28;20678;-56
2022/11/26 10:03:18;;;;;;;19.87;5.07;;;7.50;99.90;;;;;;5037896;28;20238;-55
2022/11/26 10:06:22;;;;;;;16.03;4.70;;;7.40;99.90;;;;;;5037125;28;20439;-55
2022/11/26 10:09:16;;;;;;;18.70;4.67;;;7.50;99.90;;;;;;5038141;28;20200;-56
2022/11/26 10:11:56;;;;;;;17.67;5.23;;;7.60;99.90;;;;;;5038048;28;20227;-55
2022/11/26 10:14:40;;;;;;;16.27;4.33;;;7.60;99.90;;;;;;5037930;28;20210;-55
2022/11/26 10:17:26;;;;;;;17.83;5.17;;;7.70;99.90;;;;;;5039257;28;20212;-56
2022/11/26 10:20:23;;;;;;;13.77;4.63;;;7.70;99.90;;;;;;5047984;28;20215;-55
2022/11/26 10:23:04;;;;;;;14.83;4.90;;;7.80;99.90;;;;;;5035469;28;20295;-55
2022/11/26 10:25:38;;;;;;;15.67;4.43;;;7.90;99.90;;;;;;5038952;28;20226;-56
2022/11/26 10:28:20;;;;;;;14.20;4.53;;;8.00;99.90;;;;;;5038880;28;20197;-55
2022/11/26 10:31:11;;;;;;;17.03;5.47;;;8.20;99.90;;;;;;5037122;28;20195;-56
2022/11/26 10:33:50;;;;;;;16.10;4.87;;;8.30;99.90;;;;;;5023945;28;20199;-56
2022/11/26 10:36:41;;;;;;;16.47;4.80;;;8.30;99.90;;;;;;5026426;28;20309;-56
2022/11/26 10:39:13;;;;;;;17.17;5.33;;;8.40;99.90;;;;;;5028552;28;20247;-56
2022/11/26 10:41:40;;;;;;;13.43;4.70;;;8.50;99.90;;;;;;5027456;28;20246;-56
2022/11/26 10:44:36;;;;;;;15.40;5.30;;;8.60;99.90;;;;;;5031491;28;20218;-56
2022/11/26 10:47:28;;;;;;;16.53;5.00;;;8.50;99.90;;;;;;5030931;28;20265;-56
2022/11/26 10:50:19;;;;;;;13.33;4.00;;;8.60;99.90;;;;;;5032640;28;20679;-58
2022/11/26 10:53:12;;;;;;;13.67;4.77;;;8.60;99.90;;;;;;5030778;28;20601;-57
2022/11/26 10:55:42;;;;;;;14.00;4.43;;;8.60;99.90;;;;;;5035806;28;20206;-56
2022/11/26 10:58:41;;;;;;;12.97;4.43;;;8.60;99.90;;;;;;5029989;28;20235;-56
2022/11/26 11:01:09;;;;;;;12.43;4.23;;;8.60;99.90;;;;;;5023487;28;21029;-56
2022/11/26 11:03:45;;;;;;;11.20;4.40;;;8.70;99.90;;;;;;5029645;28;20203;-56
2022/11/26 11:06:41;;;;;;;13.33;4.63;;;8.80;99.90;;;;;;5028935;28;22766;-57
2022/11/26 11:09:44;;;;;;;14.53;5.00;;;8.90;99.90;;;;;;5026937;28;20289;-56
2022/11/26 11:12:21;;;;;;;13.30;4.93;;;9.00;99.90;;;;;;4962290;28;20317;-56
2022/11/26 11:14:49;;;;;;;13.10;4.43;;;9.10;99.90;;;;;;4974455;28;20331;-56
2022/11/26 11:17:19;;;;;;;13.67;4.53;;;9.20;99.90;;;;;;4984141;28;20209;-56
2022/11/26 11:19:46;;;;;;;10.17;3.53;;;9.30;99.90;;;;;;4993753;28;20215;-57
2022/11/26 11:22:20;;;;;;;12.27;4.40;;;9.40;99.90;;;;;;4977174;28;20296;-56
2022/11/26 11:24:47;;;;;;;13.20;4.13;;;9.50;99.90;;;;;;4993469;28;20336;-56
2022/11/26 11:27:24;;;;;;;10.17;4.80;;;9.70;99.90;;;;;;4993417;28;20228;-56
2022/11/26 11:29:51;;;;;;;13.87;4.63;;;9.80;99.90;;;;;;4989783;28;20227;-56
2022/11/26 11:32:36;;;;;;;13.40;4.97;;;10.00;99.90;;;;;;4993035;28;20195;-56
2022/11/26 11:35:22;;;;;;;8.57;4.27;;;10.10;99.90;;;;;;4989254;28;20840;-57
2022/11/26 11:37:54;;;;;;;18.17;5.00;;;10.20;99.90;;;;;;4987911;28;20216;-56
2022/11/26 11:40:26;;;;;;;16.93;4.87;;;10.40;99.90;;;;;;4992596;28;20212;-56
2022/11/26 11:43:04;;;;;;;12.10;4.00;;;10.80;99.90;;;;;;4990241;28;20606;-57
2022/11/26 11:45:45;;;;;;;13.47;4.20;;;10.90;99.90;;;;;;4997919;28;20207;-57
2022/11/26 11:48:47;;;;;;;11.33;3.80;;;10.90;99.90;;;;;;5029010;28;20195;-58
2022/11/26 11:51:32;;;;;;;12.60;4.23;;;10.70;99.90;;;;;;5030231;28;20338;-56
2022/11/26 11:54:23;;;;;;;9.57;3.87;;;10.80;99.90;;;;;;5026844;28;20236;-56
2022/11/26 11:57:02;;;;;;;14.33;4.20;;;10.80;99.90;;;;;;5030980;28;20200;-56
2022/11/26 11:59:46;;;;;;;12.57;3.90;;;10.60;99.90;;;;;;5030008;28;20239;-56
2022/11/26 12:02:22;;;;;;;15.03;4.30;;;10.60;99.90;;;;;;5030633;28;20232;-54
2022/11/26 12:05:27;;;;;;;10.63;3.53;;;10.40;99.90;;;;;;5027961;28;20212;-57
2022/11/26 12:08:11;;;;;;;14.73;4.30;;;10.30;99.90;;;;;;5027832;28;20234;-57
2022/11/26 12:11:04;;;;;;;11.47;4.13;;;10.40;99.90;;;;;;5030750;28;20349;-57
2022/11/26 12:13:38;;;;;;;7.10;3.43;;;10.30;99.90;;;;;;5030624;28;20307;-55
2022/11/26 12:16:08;;;;;;;13.03;3.90;;;10.30;99.90;;;;;;5026079;28;20326;-54
2022/11/26 12:19:05;;;;;;;11.60;3.73;;;10.30;99.90;;;;;;5027757;28;20203;-55
2022/11/26 12:21:52;;;;;;;10.80;3.50;;;10.20;99.90;;;;;;5029658;28;20230;-55
2022/11/26 12:24:36;;;;;;;10.37;3.90;;;10.20;99.90;;;;;;5029393;28;20306;-55
2022/11/26 12:27:34;;;;;;;9.80;3.93;;;10.10;99.90;;;;;;5025250;28;20218;-55
2022/11/26 12:30:11;;;;;;;13.13;4.03;;;10.20;99.90;;;;;;5017835;28;20212;-55
2022/11/26 12:33:16;;;;;;;11.50;4.57;;;10.10;99.90;;;;;;5032136;28;20209;-55
2022/11/26 12:35:50;;;;;;;16.10;4.73;;;10.10;99.90;;;;;;5020234;28;20327;-54
2022/11/26 12:38:37;;;;;;;10.63;3.90;;;10.10;99.90;;;;;;5026104;28;20559;-61
2022/11/26 12:41:13;;;;;;;12.83;4.47;;;10.10;99.90;;;;;;5028219;28;21783;-55
2022/11/26 12:43:42;;;;;;;11.40;4.17;;;10.10;99.90;;;;;;5021776;28;20208;-55
2022/11/26 12:46:22;;;;;;;14.53;5.33;;;10.00;99.90;;;;;;5026287;28;20307;-56
2022/11/26 12:48:52;;;;;;;8.57;3.83;;;10.00;99.90;;;;;;5020606;28;20422;-55
2022/11/26 12:51:36;;;;;;;11.70;4.27;;;10.10;99.90;;;;;;5025497;28;20831;-55
2022/11/26 12:54:32;;;;;;;14.50;5.33;;;10.20;99.90;;;;;;5025431;28;20637;-55
2022/11/26 12:57:34;;;;;;;18.90;4.97;;;10.00;99.90;;;;;;5027525;28;20289;-55
2022/11/26 13:00:09;;;;;;;11.93;4.50;;;10.00;99.90;;;;;;5014069;28;20408;-56
2022/11/26 13:02:40;;;;;;;17.13;4.83;;;10.10;99.90;;;;;;5028360;28;20231;-55
2022/11/26 13:05:13;;;;;;;12.10;4.60;;;10.10;99.90;;;;;;5032671;28;21385;-55
2022/11/26 13:07:56;;;;;;;12.97;4.53;;;10.10;99.90;;;;;;5024685;28;20211;-55
2022/11/26 13:10:52;;;;;;;14.00;4.90;;;10.10;99.90;;;;;;5021766;28;20235;-55
2022/11/26 13:13:37;;;;;;;12.53;4.50;;;10.20;99.90;;;;;;5024246;28;20230;-57
2022/11/26 13:16:42;;;;;;;13.80;4.93;;;10.30;99.90;;;;;;5054401;28;20376;-55